Time;durP1;ratioP1;P1;durP2;ratioP2;P2;SDS_P1;SDS_P2;PMS_P1;PMS_P2;Temp;Humidity;BMP_temperature;BMP_pressure;BME280_temperature;BME280_humidity;BME280_pressure;Samples;Min_cycle;Max_cycle;Signal;HPM_P1;HPM_P2
2022/12/03 00:01:22;;;;;;;27.13;15.63;;;;;;;0.89;99.54;101451.75;4987121;28;20047;-80
2022/12/03 00:03:50;;;;;;;27.02;16.63;;;;;;;0.80;99.29;101429.00;4987450;28;20106;-80
2022/12/03 00:06:17;;;;;;;26.20;16.33;;;;;;;0.89;99.38;101445.75;4979111;28;20053;-80
2022/12/03 00:08:44;;;;;;;26.65;15.95;;;;;;;0.77;99.41;101421.41;4985157;28;20089;-80
2022/12/03 00:11:11;;;;;;;26.60;15.82;;;;;;;0.80;99.22;101425.56;4987512;28;20421;-80
2022/12/03 00:13:37;;;;;;;27.98;16.30;;;;;;;0.76;99.24;101424.06;4987424;28;20054;-80
2022/12/03 00:16:04;;;;;;;27.48;16.13;;;;;;;0.80;99.23;101431.56;4985429;28;20074;-80
2022/12/03 00:18:31;;;;;;;27.35;16.35;;;;;;;0.81;99.16;101438.38;4984792;28;20110;-80
2022/12/03 00:20:59;;;;;;;26.05;15.05;;;;;;;0.88;99.35;101437.19;4985777;28;20086;-80
2022/12/03 00:23:25;;;;;;;27.25;16.08;;;;;;;0.77;99.40;101442.00;4985129;28;20550;-80
2022/12/03 00:25:52;;;;;;;27.02;15.57;;;;;;;0.76;99.79;101445.50;4984944;28;20490;-81
2022/12/03 00:28:19;;;;;;;24.67;14.43;;;;;;;0.71;99.79;101438.91;4984287;28;20136;-80
2022/12/03 00:30:45;;;;;;;24.90;15.30;;;;;;;0.72;100.00;101433.66;4984858;28;20505;-79
2022/12/03 00:33:12;;;;;;;25.17;15.00;;;;;;;0.83;99.92;101438.31;4986216;28;20070;-79
2022/12/03 00:35:38;;;;;;;26.17;15.15;;;;;;;0.84;99.57;101432.25;4986641;28;20051;-78
2022/12/03 00:38:06;;;;;;;29.65;15.43;;;;;;;0.91;99.86;101434.47;4984500;28;20071;-80
2022/12/03 00:40:33;;;;;;;23.85;14.43;;;;;;;0.90;99.77;101425.06;4983125;28;20078;-81
2022/12/03 00:43:00;;;;;;;28.38;15.18;;;;;;;0.95;99.73;101435.13;4983283;28;20051;-81
2022/12/03 00:45:26;;;;;;;25.38;14.82;;;;;;;0.95;99.94;101428.22;4983505;28;20050;-79
2022/12/03 00:47:53;;;;;;;25.00;15.00;;;;;;;0.95;99.72;101435.94;4982448;28;20478;-81
2022/12/03 00:50:20;;;;;;;25.67;15.57;;;;;;;0.93;99.86;101426.66;4983300;28;20109;-79
2022/12/03 00:52:46;;;;;;;28.73;15.73;;;;;;;0.97;99.31;101418.66;4984500;28;20110;-82
2022/12/03 00:55:14;;;;;;;25.23;15.50;;;;;;;0.99;99.34;101422.00;4987019;28;20066;-81
2022/12/03 00:57:42;;;;;;;23.98;14.98;;;;;;;0.97;99.29;101417.84;4986492;28;20050;-81
2022/12/03 01:00:10;;;;;;;28.60;16.13;;;;;;;1.04;99.38;101424.34;4984623;28;20114;-81
2022/12/03 01:02:37;;;;;;;27.13;15.40;;;;;;;1.03;98.72;101422.69;4984465;28;20062;-80
2022/12/03 01:05:04;;;;;;;25.70;13.88;;;;;;;1.13;98.76;101433.38;4983895;28;20046;-79
2022/12/03 01:07:31;;;;;;;24.00;14.13;;;;;;;1.12;98.47;101431.72;4985992;28;20061;-80
2022/12/03 01:09:57;;;;;;;25.65;14.27;;;;;;;1.11;98.36;101430.06;4992945;28;20090;-80
2022/12/03 01:12:25;;;;;;;23.13;14.20;;;;;;;1.18;98.39;101436.56;4986842;28;20112;-81
2022/12/03 01:14:52;;;;;;;22.45;14.27;;;;;;;1.15;98.56;101436.72;4986603;28;20086;-80
2022/12/03 01:17:18;;;;;;;24.33;15.13;;;;;;;1.15;98.37;101436.72;4987831;28;20054;-78
2022/12/03 01:19:45;;;;;;;23.80;14.00;;;;;;;1.10;98.19;101425.81;4986902;28;20050;-79
2022/12/03 01:22:12;;;;;;;21.10;12.93;;;;;;;1.17;98.08;101430.59;4982574;28;20089;-79
2022/12/03 01:24:38;;;;;;;23.52;13.70;;;;;;;1.19;98.25;101430.50;4981761;28;20077;-80
2022/12/03 01:27:05;;;;;;;22.75;14.15;;;;;;;1.18;98.10;101431.41;4981415;28;20418;-79
2022/12/03 01:29:33;;;;;;;22.92;13.50;;;;;;;1.19;97.59;101428.75;4983187;28;20077;-80
2022/12/03 01:32:18;;;;;;;24.23;12.98;;;;;;;1.24;97.97;101428.53;4982623;28;20129;-80
2022/12/03 01:34:45;;;;;;;22.33;12.93;;;;;;;1.31;97.51;101435.06;4983670;28;20055;-81
2022/12/03 01:37:12;;;;;;;22.17;13.05;;;;;;;1.31;97.45;101437.63;4982904;28;20055;-79
2022/12/03 01:39:39;;;;;;;21.85;12.70;;;;;;;1.32;97.38;101434.16;4982310;28;20051;-81
2022/12/03 01:42:07;;;;;;;21.17;13.13;;;;;;;1.26;97.05;101440.44;4982891;28;20058;-80
2022/12/03 01:44:36;;;;;;;21.77;13.50;;;;;;;1.29;96.93;101439.47;4983535;28;20509;-80
2022/12/03 01:47:06;;;;;;;20.73;13.05;;;;;;;1.32;97.02;101444.47;4983410;28;20097;-81
2022/12/03 01:49:40;;;;;;;17.55;11.88;;;;;;;1.34;97.43;101432.31;4982760;28;20101;-78
2022/12/03 01:52:12;;;;;;;23.48;12.90;;;;;;;1.39;97.21;101442.41;4983817;28;20138;-80
2022/12/03 01:54:42;;;;;;;20.15;12.60;;;;;;;1.40;96.90;101434.59;4981996;28;20061;-80
2022/12/03 01:57:18;;;;;;;19.85;12.45;;;;;;;1.40;97.03;101433.75;4982359;28;20042;-80
2022/12/03 01:59:47;;;;;;;18.25;11.48;;;;;;;1.43;96.78;101436.16;4981854;28;20134;-80
2022/12/03 02:02:19;;;;;;;18.88;12.10;;;;;;;1.47;96.40;101433.34;4982054;28;20075;-80
2022/12/03 02:04:47;;;;;;;18.25;11.20;;;;;;;1.46;96.20;101426.53;4982177;28;20058;-81
2022/12/03 02:07:25;;;;;;;18.23;11.80;;;;;;;1.48;96.49;101434.19;4981269;28;20078;-79
2022/12/03 02:09:52;;;;;;;19.15;12.15;;;;;;;1.44;96.04;101428.34;5032324;23;20100;-78
2022/12/03 02:12:23;;;;;;;16.52;11.27;;;;;;;1.46;96.33;101425.69;5013213;28;20085;-77
2022/12/03 02:14:53;;;;;;;18.90;11.63;;;;;;;1.47;95.76;101432.50;5014130;28;20058;-78
2022/12/03 02:17:20;;;;;;;20.08;12.05;;;;;;;1.47;95.68;101427.34;5015697;28;20048;-79
2022/12/03 02:19:48;;;;;;;18.27;11.68;;;;;;;1.47;95.64;101430.78;5030878;28;20061;-81
2022/12/03 02:22:30;;;;;;;20.30;11.60;;;;;;;1.52;95.45;101426.22;5031751;28;20050;-79
2022/12/03 02:25:10;;;;;;;17.02;10.82;;;;;;;1.57;95.47;101436.28;5033704;28;20068;-78
2022/12/03 02:27:37;;;;;;;17.08;10.93;;;;;;;1.51;95.22;101427.13;5014346;28;20046;-78
2022/12/03 02:30:05;;;;;;;17.25;10.75;;;;;;;1.53;95.10;101427.03;5013445;28;20054;-78
2022/12/03 02:32:31;;;;;;;16.25;10.98;;;;;;;1.58;95.03;101414.75;5013805;28;20240;-78
2022/12/03 02:34:58;;;;;;;18.10;11.70;;;;;;;1.62;94.92;101418.84;5013635;28;20536;-78
2022/12/03 02:37:29;;;;;;;18.08;11.25;;;;;;;1.55;94.75;101412.31;5015157;28;20141;-79
2022/12/03 02:40:00;;;;;;;16.42;10.90;;;;;;;1.54;94.44;101408.06;5013642;28;20092;-77
2022/12/03 02:42:35;;;;;;;16.73;10.43;;;;;;;1.60;94.75;101423.25;5014330;28;20088;-80
2022/12/03 02:45:05;;;;;;;17.45;10.80;;;;;;;1.56;94.72;101419.97;5014787;28;20058;-79
2022/12/03 02:47:35;;;;;;;17.80;10.93;;;;;;;1.55;94.20;101400.25;5016483;28;20077;-78
2022/12/03 02:50:03;;;;;;;18.75;11.48;;;;;;;1.59;94.75;101412.09;5018463;28;20041;-79
2022/12/03 02:52:30;;;;;;;16.50;10.80;;;;;;;1.55;94.56;101410.56;5018146;28;20050;-79
2022/12/03 02:55:00;;;;;;;16.15;11.10;;;;;;;1.54;94.61;101403.75;5018845;28;20085;-78
2022/12/03 02:57:30;;;;;;;18.83;10.52;;;;;;;1.57;94.69;101397.59;5018342;28;20096;-77
2022/12/03 02:59:57;;;;;;;19.20;11.82;;;;;;;1.58;94.72;101407.84;5022918;28;20054;-80
2022/12/03 03:02:27;;;;;;;16.98;11.20;;;;;;;1.62;94.69;101399.03;5027497;28;20060;-80
2022/12/03 03:04:54;;;;;;;18.80;11.23;;;;;;;1.54;94.88;101390.03;5027324;28;20137;-79
2022/12/03 03:07:21;;;;;;;18.50;11.90;;;;;;;1.52;94.78;101386.69;5020627;28;20057;-80
2022/12/03 03:09:48;;;;;;;18.67;11.68;;;;;;;1.60;95.09;101398.28;5015640;28;20372;-81
2022/12/03 03:12:15;;;;;;;17.73;11.15;;;;;;;1.52;94.70;101394.44;5016743;28;20449;-79
2022/12/03 03:14:44;;;;;;;18.42;11.07;;;;;;;1.66;95.67;101397.97;5016179;28;20153;-78
2022/12/03 03:17:11;;;;;;;17.52;10.85;;;;;;;1.59;95.74;101399.19;5015499;28;20558;-81
2022/12/03 03:19:39;;;;;;;17.98;11.05;;;;;;;1.56;95.46;101401.94;5015918;28;20076;-80
2022/12/03 03:22:06;;;;;;;17.63;11.30;;;;;;;1.57;95.37;101393.28;5015426;28;20404;-78
2022/12/03 03:24:33;;;;;;;17.83;11.48;;;;;;;1.63;95.36;101397.28;5014560;28;20049;-80
2022/12/03 03:27:00;;;;;;;19.92;12.07;;;;;;;1.53;95.29;101391.78;5014823;28;20074;-80
2022/12/03 03:29:27;;;;;;;19.27;12.02;;;;;;;1.54;94.73;101400.34;5015560;28;20077;-78
2022/12/03 03:31:55;;;;;;;18.08;11.32;;;;;;;1.52;95.21;101397.84;5015782;28;20057;-80
2022/12/03 03:34:22;;;;;;;20.17;12.18;;;;;;;1.53;95.15;101399.50;5017155;28;20054;-80
2022/12/03 03:36:49;;;;;;;20.15;12.65;;;;;;;1.56;95.23;101399.34;5018522;28;20133;-81
2022/12/03 03:39:16;;;;;;;18.30;11.75;;;;;;;1.51;95.16;101388.44;5016000;28;20045;-79
2022/12/03 03:41:45;;;;;;;18.40;11.57;;;;;;;1.53;94.79;101393.50;5018004;28;20050;-80
2022/12/03 03:44:14;;;;;;;20.63;12.25;;;;;;;1.56;95.02;101395.94;5017152;28;20054;-81
2022/12/03 03:46:41;;;;;;;20.58;12.90;;;;;;;1.54;95.27;101396.00;5015897;28;20050;-78
2022/12/03 03:49:13;;;;;;;20.70;12.63;;;;;;;1.44;94.74;101384.50;5016036;28;20500;-81
2022/12/03 03:51:39;;;;;;;20.23;12.30;;;;;;;1.43;95.15;101390.56;5015438;28;20053;-80
2022/12/03 03:54:07;;;;;;;19.45;12.00;;;;;;;1.40;95.57;101387.34;5018809;28;20105;-79
2022/12/03 03:56:36;;;;;;;21.05;12.63;;;;;;;1.34;95.51;101391.06;5019531;28;20057;-79
2022/12/03 03:59:03;;;;;;;21.70;13.10;;;;;;;1.43;95.42;101388.00;5021935;28;20054;-79
2022/12/03 04:01:31;;;;;;;21.00;12.10;;;;;;;1.48;95.38;101392.91;5019936;28;20050;-80
2022/12/03 04:03:58;;;;;;;20.15;12.27;;;;;;;1.47;95.48;101386.09;5021275;28;20057;-81
2022/12/03 04:06:29;;;;;;;18.67;12.18;;;;;;;1.43;95.23;101382.00;5025918;28;20046;-80
2022/12/03 04:08:56;;;;;;;21.77;13.13;;;;;;;1.40;95.79;101393.34;4492259;28;15094016;-81
2022/12/03 04:14:11;;;;;;;21.80;12.68;;;;;;;1.43;96.28;101388.00;5021402;28;20058;-81
2022/12/03 04:16:41;;;;;;;22.33;13.38;;;;;;;1.44;96.13;101381.91;5021018;28;20102;-82
2022/12/03 04:19:11;;;;;;;21.83;12.82;;;;;;;1.29;96.41;101362.09;5021419;28;20116;-81
2022/12/03 04:24:33;;;;;;;23.63;13.60;;;;;;;1.45;96.90;101386.16;5021798;28;20061;-82
2022/12/03 04:29:44;;;;;;;19.67;12.23;;;;;;;1.37;97.08;101380.59;5021392;28;20056;-80
2022/12/03 04:37:40;;;;;;;20.88;11.82;;;;;;;1.39;97.39;101376.19;5019901;28;20053;-79
2022/12/03 04:40:59;;;;;;;23.35;13.90;;;;;;;1.43;97.60;101371.69;5016487;28;20053;-79
2022/12/03 04:42:56;;;;;;;21.90;12.82;;;;;;;1.40;97.47;101372.72;5017074;28;20521;-79
2022/12/03 04:45:24;;;;;;;24.92;14.05;;;;;;;1.38;97.49;101360.81;5016005;28;20053;-79
2022/12/03 04:47:51;;;;;;;23.48;14.25;;;;;;;1.42;98.06;101370.84;5015867;28;20049;-76
2022/12/03 04:50:21;;;;;;;25.48;13.80;;;;;;;1.39;97.67;101376.19;5016890;28;20152;-79
2022/12/03 04:52:52;;;;;;;24.30;13.82;;;;;;;1.37;97.71;101372.03;5017331;28;20050;-78
2022/12/03 04:55:22;;;;;;;25.67;15.13;;;;;;;1.42;97.76;101377.78;5017015;28;20088;-79
2022/12/03 04:57:52;;;;;;;23.23;14.27;;;;;;;1.43;98.11;101369.94;5016825;28;20057;-76
2022/12/03 05:00:21;;;;;;;23.63;14.10;;;;;;;1.44;98.10;101360.47;5015733;28;20456;-79
2022/12/03 05:02:57;;;;;;;23.42;14.05;;;;;;;1.44;98.54;101370.78;5015343;28;20448;-79
2022/12/03 05:05:28;;;;;;;24.25;14.27;;;;;;;1.41;98.23;101369.22;5016497;28;20053;-79
2022/12/03 05:07:56;;;;;;;24.25;14.52;;;;;;;1.39;98.73;101362.47;5016385;28;20056;-80
2022/12/03 05:10:23;;;;;;;25.13;15.60;;;;;;;1.40;98.81;101364.97;5017194;28;20053;-80
2022/12/03 05:12:50;;;;;;;23.88;14.43;;;;;;;1.50;98.81;101366.13;5017452;28;20092;-80
2022/12/03 05:15:17;;;;;;;25.13;15.27;;;;;;;1.33;98.72;101358.47;5014078;28;20579;-79
2022/12/03 05:17:44;;;;;;;24.85;14.55;;;;;;;1.43;98.86;101369.09;5015199;28;20053;-78
2022/12/03 05:23:09;;;;;;;25.30;13.98;;;;;;;1.43;98.74;101353.63;5018346;28;20060;-79
2022/12/03 05:25:52;;;;;;;26.05;14.65;;;;;;;1.44;98.28;101350.97;5017430;28;20508;-81
2022/12/03 05:28:28;;;;;;;24.52;14.57;;;;;;;1.36;99.01;101340.25;5015453;28;20049;-79
2022/12/03 05:30:58;;;;;;;28.75;15.15;;;;;;;1.45;98.41;101362.97;5015310;28;20215;-79
2022/12/03 05:33:30;;;;;;;26.00;15.30;;;;;;;1.33;98.71;101345.56;5015101;28;20428;-80
2022/12/03 05:35:57;;;;;;;;;;;;;;;1.45;98.51;101352.66;5015774;28;20481;-78
2022/12/03 05:38:25;;;;;;;25.73;15.05;;;;;;;1.37;98.55;101352.22;5014287;28;20364;-80
2022/12/03 05:40:52;;;;;;;25.75;14.95;;;;;;;1.39;98.66;101360.72;5015992;28;20069;-79
2022/12/03 05:43:18;;;;;;;25.80;14.50;;;;;;;1.40;98.68;101349.50;5016966;28;20100;-78
2022/12/03 05:45:45;;;;;;;28.42;15.75;;;;;;;1.40;98.71;101349.50;5018891;28;20046;-78
2022/12/03 05:48:14;;;;;;;27.35;15.77;;;;;;;1.43;98.58;101349.31;5019163;28;20110;-78
2022/12/03 05:50:43;;;;;;;29.63;15.68;;;;;;;1.35;98.61;101350.66;5017039;28;20464;-78
2022/12/03 05:53:10;;;;;;;29.90;16.42;;;;;;;1.35;98.68;101345.50;5015608;28;20045;-80
2022/12/03 05:55:38;;;;;;;24.50;14.20;;;;;;;1.37;98.36;101349.66;5016312;28;20042;-79
2022/12/03 05:58:05;;;;;;;26.70;14.88;;;;;;;1.38;98.72;101348.75;5016807;28;20049;-80
2022/12/03 06:00:37;;;;;;;30.58;15.77;;;;;;;1.35;98.88;101351.47;5017037;28;20421;-79
2022/12/03 06:03:08;;;;;;;29.70;16.10;;;;;;;1.31;98.90;101348.22;5015556;28;20497;-80
2022/12/03 06:05:35;;;;;;;27.92;15.60;;;;;;;1.26;99.07;101337.31;5014978;28;20145;-79
2022/12/03 06:08:04;;;;;;;27.92;15.32;;;;;;;1.31;99.73;101355.97;5013661;28;20050;-79
2022/12/03 06:10:33;;;;;;;32.38;15.65;;;;;;;1.30;99.45;101350.88;5015665;28;20054;-80
2022/12/03 06:13:08;;;;;;;29.85;16.00;;;;;;;1.30;99.48;101353.47;5021156;28;20057;-78
2022/12/03 06:15:40;;;;;;;28.30;15.30;;;;;;;1.25;99.64;101350.28;5027336;28;20133;-80
2022/12/03 06:18:09;;;;;;;28.45;16.15;;;;;;;1.33;99.62;101353.31;5030951;28;20061;-79
2022/12/03 06:20:37;;;;;;;26.50;14.35;;;;;;;1.19;99.71;101342.84;5027296;28;20050;-79
2022/12/03 06:23:04;;;;;;;30.23;14.65;;;;;;;1.31;99.93;101352.56;5015915;28;20441;-79
2022/12/03 06:25:31;;;;;;;27.90;15.40;;;;;;;1.29;99.42;101356.94;5016330;28;20473;-78
2022/12/03 06:27:57;;;;;;;28.30;14.88;;;;;;;1.22;99.44;101346.13;5014142;28;20164;-80
2022/12/03 06:30:26;;;;;;;28.55;15.02;;;;;;;1.27;99.60;101356.19;5014560;28;20136;-79
2022/12/03 06:32:52;;;;;;;30.08;15.18;;;;;;;1.30;99.40;101349.13;5015183;28;20108;-78
2022/12/03 06:35:19;;;;;;;26.00;14.05;;;;;;;1.28;99.47;101350.13;5015241;28;20465;-79
2022/12/03 06:37:46;;;;;;;29.13;14.55;;;;;;;1.29;99.23;101347.47;5015303;28;20104;-79
2022/12/03 06:40:13;;;;;;;27.45;14.32;;;;;;;1.24;99.51;101354.59;5021491;28;20053;-80
2022/12/03 06:42:40;;;;;;;26.05;14.02;;;;;;;1.24;99.51;101358.94;5022653;28;20053;-78
2022/12/03 06:45:07;;;;;;;27.88;14.88;;;;;;;1.27;99.29;101358.78;5022911;28;20076;-78
2022/12/03 06:47:35;;;;;;;27.10;15.18;;;;;;;1.27;99.34;101358.78;4997563;28;20097;-80
2022/12/03 06:50:02;;;;;;;30.48;15.15;;;;;;;1.27;98.98;101361.34;4998454;28;20085;-79
2022/12/03 06:52:29;;;;;;;27.15;14.30;;;;;;;1.26;99.37;101357.94;5000488;28;20338;-80
2022/12/03 06:55:04;;;;;;;26.95;14.90;;;;;;;1.18;98.98;101339.44;5012484;28;20050;-80
2022/12/03 07:00:31;;;;;;;27.50;13.73;;;;;;;1.25;98.73;101347.69;5016976;22;20054;-79
2022/12/03 07:03:05;;;;;;;31.02;14.30;;;;;;;1.23;98.72;101347.78;5004510;28;20137;-80
2022/12/03 07:05:35;;;;;;;29.08;15.32;;;;;;;1.29;98.49;101349.22;5001664;28;20101;-80
2022/12/03 07:08:04;;;;;;;29.40;14.35;;;;;;;1.18;98.07;101339.44;5000629;28;20046;-82
2022/12/03 07:10:31;;;;;;;28.52;13.88;;;;;;;1.30;98.55;101358.63;4981793;28;20149;-81
2022/12/03 07:13:01;;;;;;;26.95;14.13;;;;;;;1.25;97.99;101352.84;5044514;23;20080;-78
2022/12/03 07:15:28;;;;;;;25.30;13.40;;;;;;;1.10;98.18;101320.13;5013133;28;20077;-78
2022/12/03 07:17:57;;;;;;;26.50;14.73;;;;;;;1.25;98.01;101355.44;5011185;28;20045;-77
2022/12/03 07:20:25;;;;;;;28.75;13.82;;;;;;;1.22;98.06;101346.13;5011291;28;20054;-76
2022/12/03 07:22:52;;;;;;;27.05;14.15;;;;;;;1.22;98.57;101351.28;5002992;28;20061;-77
2022/12/03 07:25:18;;;;;;;28.58;14.85;;;;;;;1.27;98.25;101356.19;4991678;28;20077;-78
2022/12/03 07:27:45;;;;;;;28.73;13.93;;;;;;;1.32;98.08;101354.22;4992453;28;20109;-78
2022/12/03 07:30:14;;;;;;;26.30;13.88;;;;;;;1.32;97.37;101356.78;4990448;28;20135;-77
2022/12/03 07:32:41;;;;;;;26.50;14.02;;;;;;;1.28;97.75;101350.97;4973863;28;20046;-79
2022/12/03 07:35:08;;;;;;;27.70;13.90;;;;;;;1.28;97.58;101347.53;4974025;28;20057;-78
2022/12/03 07:37:36;;;;;;;28.13;13.48;;;;;;;1.32;97.51;101351.63;4974259;28;20129;-78
2022/12/03 07:40:03;;;;;;;26.17;13.80;;;;;;;1.33;97.30;101354.13;4978027;28;20129;-78
2022/12/03 07:42:30;;;;;;;28.08;14.57;;;;;;;1.30;97.10;101358.63;4977423;28;20137;-77
2022/12/03 07:44:57;;;;;;;25.67;13.48;;;;;;;1.28;97.08;101361.28;4985767;28;20125;-77
2022/12/03 07:47:23;;;;;;;29.95;14.88;;;;;;;1.32;96.99;101362.78;4978080;28;20086;-79
2022/12/03 07:49:50;;;;;;;25.90;14.50;;;;;;;1.28;96.91;101355.28;4984315;28;20540;-78
2022/12/03 07:52:17;;;;;;;29.08;14.27;;;;;;;1.30;96.68;101359.44;4987888;28;20125;-79
2022/12/03 07:54:44;;;;;;;24.83;13.82;;;;;;;1.37;96.57;101359.97;4988694;28;20074;-79
2022/12/03 07:57:11;;;;;;;30.40;14.85;;;;;;;1.31;96.41;101360.28;4982173;28;20051;-76
2022/12/03 07:59:38;;;;;;;29.77;14.50;;;;;;;1.26;96.24;101364.84;4975575;28;20150;-75
2022/12/03 08:02:05;;;;;;;25.63;12.80;;;;;;;1.31;96.32;101360.28;4993252;28;20054;-78
2022/12/03 08:08:05;;;;;;;24.92;13.10;;;;;;;1.32;96.38;101341.31;4986990;28;20054;-79
2022/12/03 08:10:48;;;;;;;31.05;15.10;;;;;;;1.28;96.61;101347.53;4993668;28;20113;-79
2022/12/03 08:13:17;;;;;;;29.52;14.98;;;;;;;1.27;96.25;101348.47;4993900;28;20054;-80
2022/12/03 08:15:45;;;;;;;29.20;14.02;;;;;;;1.29;96.37;101362.09;4991992;28;20043;-78
2022/12/03 08:18:17;;;;;;;28.70;14.10;;;;;;;1.33;96.39;101356.72;4975987;28;20138;-77
2022/12/03 08:20:45;;;;;;;31.30;15.17;;;;;;;1.27;96.19;101364.75;4990817;28;20690;-78
2022/12/03 08:23:15;;;;;;;29.23;15.10;;;;;;;1.29;96.38;101365.53;4992917;28;20060;-79
2022/12/03 08:25:46;;;;;;;27.42;13.77;;;;;;;1.42;96.18;101368.28;4986146;28;20070;-78
2022/12/03 08:28:15;;;;;;;28.08;14.20;;;;;;;1.40;96.03;101367.56;4974825;28;20138;-79
2022/12/03 08:30:44;;;;;;;28.00;13.32;;;;;;;1.42;95.71;101357.97;4980957;28;20042;-78
2022/12/03 08:33:17;;;;;;;31.77;14.25;;;;;;;1.45;95.80;101367.28;4997065;28;20113;-77
2022/12/03 08:35:48;;;;;;;27.33;14.57;;;;;;;1.43;95.67;101369.09;4999269;28;20173;-78
2022/12/03 08:38:15;;;;;;;28.05;14.43;;;;;;;1.40;95.55;101369.28;5012084;28;20064;-80
2022/12/03 08:40:46;;;;;;;29.05;14.50;;;;;;;1.47;95.63;101361.13;4975861;28;20141;-79
2022/12/03 08:43:23;;;;;;;29.67;14.40;;;;;;;1.38;95.15;101353.06;5019595;23;20054;-79
2022/12/03 08:45:52;;;;;;;25.75;13.18;;;;;;;1.57;95.13;101358.91;4999708;28;20209;-79
2022/12/03 08:48:27;;;;;;;24.83;13.85;;;;;;;1.44;94.65;101356.13;5013175;28;20049;-76
2022/12/03 08:50:56;;;;;;;28.25;14.52;;;;;;;1.46;95.08;101359.47;5012526;28;20054;-78
2022/12/03 08:53:32;;;;;;;27.65;13.68;;;;;;;1.55;94.95;101355.56;5013955;28;20141;-79
2022/12/03 09:01:06;;;;;;;24.10;13.23;;;;;;;1.52;93.74;101359.16;4993311;28;20046;-80
2022/12/03 09:03:33;;;;;;;22.70;12.35;;;;;;;1.58;93.95;101356.25;5000754;28;20046;-80
2022/12/03 09:06:02;;;;;;;24.58;12.70;;;;;;;1.63;93.41;101356.00;4999439;28;20054;-79
2022/12/03 09:08:29;;;;;;;24.65;12.65;;;;;;;1.61;93.05;101355.25;4983411;28;20473;-83
2022/12/03 09:10:58;;;;;;;26.05;13.75;;;;;;;1.55;92.79;101356.41;4963032;28;20050;-82
2022/12/03 09:13:43;;;;;;;22.88;12.18;;;;;;;1.61;92.71;101356.09;4963542;28;20083;-78
2022/12/03 09:16:25;;;;;;;24.38;12.60;;;;;;;1.52;92.00;101338.50;4984664;23;20450;-81
2022/12/03 09:19:05;;;;;;;22.52;10.27;;;;;;;1.67;92.60;101355.78;4983016;28;20141;-83
2022/12/03 09:21:59;;;;;;;24.67;12.65;;;;;;;1.69;91.85;101362.59;4987635;28;20054;-81
2022/12/03 09:24:27;;;;;;;24.98;12.90;;;;;;;1.77;91.73;101350.13;4987488;28;20069;-83
2022/12/03 09:27:28;;;;;;;;;;;;;;;;;;;;;
2022/12/03 09:29:55;;;;;;;21.98;11.98;;;;;;;1.66;90.92;101333.47;4971982;28;20062;-83
2022/12/03 09:32:35;;;;;;;21.30;11.57;;;;;;;1.70;90.59;101343.63;4965767;28;20530;-80
2022/12/03 09:38:33;;;;;;;22.95;12.27;;;;;;;2.02;90.67;101352.19;4933840;28;20134;-80
2022/12/03 09:41:00;;;;;;;23.20;12.35;;;;;;;1.86;90.38;101332.41;4960411;29;20055;-79
2022/12/03 09:43:30;;;;;;;23.55;12.77;;;;;;;1.97;90.33;101355.03;4955823;28;20470;-78
2022/12/03 09:45:57;;;;;;;25.70;13.77;;;;;;;1.91;90.24;101330.38;4958995;29;20051;-78
2022/12/03 09:48:26;;;;;;;23.40;12.75;;;;;;;1.95;89.79;101336.22;4959150;28;20065;-79
2022/12/03 09:50:53;;;;;;;23.27;12.20;;;;;;;2.09;89.80;101343.19;4960090;28;20122;-80
2022/12/03 09:56:36;;;;;;;30.13;13.43;;;;;;;2.06;89.45;101333.88;4955726;28;20121;-78
2022/12/03 09:59:06;;;;;;;24.27;12.98;;;;;;;2.03;89.47;101328.88;4961037;28;20055;-80
2022/12/03 10:01:35;;;;;;;20.58;11.57;;;;;;;1.89;89.22;101313.34;4956105;28;20062;-78
2022/12/03 10:04:04;;;;;;;21.67;11.93;;;;;;;2.03;89.48;101328.88;4954979;28;20062;-78
2022/12/03 10:06:30;;;;;;;23.25;12.45;;;;;;;2.03;89.43;101328.88;4956099;28;20130;-79
2022/12/03 10:08:58;;;;;;;20.80;11.85;;;;;;;2.09;89.25;101325.97;4956924;28;20043;-78
2022/12/03 10:11:26;;;;;;;22.95;12.20;;;;;;;2.06;88.75;101328.72;4958645;29;20525;-79
2022/12/03 10:13:54;;;;;;;23.60;12.60;;;;;;;2.04;89.38;101325.38;4955103;28;20155;-78
2022/12/03 10:16:22;;;;;;;21.05;11.95;;;;;;;2.12;89.37;101323.22;4957214;28;20110;-79
2022/12/03 10:18:56;;;;;;;23.05;12.43;;;;;;;2.16;89.14;101322.13;4958380;29;20094;-78
2022/12/03 10:21:31;;;;;;;23.50;12.38;;;;;;;2.18;88.95;101327.22;4957359;28;21239;-79
2022/12/03 10:24:17;;;;;;;23.02;12.18;;;;;;;2.23;88.72;101320.88;4960251;28;20055;-79
2022/12/03 10:26:45;;;;;;;24.08;12.43;;;;;;;2.29;88.59;101325.69;4959045;28;20085;-80
2022/12/03 10:29:13;;;;;;;21.98;12.80;;;;;;;2.28;88.49;101320.63;4960466;28;20161;-80
2022/12/03 10:31:40;;;;;;;20.83;12.32;;;;;;;2.21;88.13;101325.28;4960127;29;20047;-80
2022/12/03 10:34:06;;;;;;;22.27;12.05;;;;;;;2.16;88.05;101319.56;4957900;28;20123;-79
2022/12/03 10:36:34;;;;;;;20.05;11.25;;;;;;;2.11;87.99;101303.47;4959034;28;20082;-79
2022/12/03 10:39:08;;;;;;;19.75;11.30;;;;;;;2.28;87.51;101308.53;4954976;29;20070;-80
2022/12/03 10:41:36;;;;;;;21.85;12.02;;;;;;;2.19;87.64;101297.91;4955834;28;20066;-78
2022/12/03 10:44:17;;;;;;;18.20;11.45;;;;;;;2.28;88.01;101297.38;4959116;28;20087;-80
2022/12/03 10:46:44;;;;;;;21.95;11.98;;;;;;;2.23;87.85;101295.06;4959047;28;20055;-80
2022/12/03 10:49:16;;;;;;;21.77;12.13;;;;;;;2.22;87.82;101288.22;4958833;28;20134;-80
2022/12/03 10:51:45;;;;;;;19.73;12.57;;;;;;;2.36;88.17;101281.44;4956975;28;20057;-81
2022/12/03 10:54:17;;;;;;;20.17;11.48;;;;;;;2.41;87.47;101287.16;4963789;28;20055;-79
2022/12/03 10:56:44;;;;;;;18.05;11.50;;;;;;;2.42;86.89;101279.31;4958378;28;20393;-79
2022/12/03 10:59:16;;;;;;;19.80;11.65;;;;;;;2.46;86.43;101277.41;4955819;28;20554;-78
2022/12/03 11:01:43;;;;;;;21.45;12.18;;;;;;;2.39;87.29;101273.50;4954055;28;20454;-78
2022/12/03 11:04:19;;;;;;;21.42;11.18;;;;;;;2.55;86.67;101266.53;4940509;28;20068;-78
2022/12/03 11:06:47;;;;;;;18.95;11.50;;;;;;;2.57;86.43;101272.44;4938999;29;20495;-80
2022/12/03 11:09:18;;;;;;;20.25;12.40;;;;;;;2.63;86.18;101256.59;4946731;29;20431;-79
2022/12/03 11:11:45;;;;;;;22.67;12.88;;;;;;;2.56;85.92;101268.22;4947435;29;20491;-79
2022/12/03 11:14:12;;;;;;;20.15;11.43;;;;;;;2.48;86.01;101260.06;4951810;29;20062;-79
2022/12/03 11:17:06;;;;;;;21.20;12.07;;;;;;;2.49;86.18;101253.97;4955156;29;20052;-80
2022/12/03 11:19:48;;;;;;;21.13;11.95;;;;;;;2.64;86.15;101247.94;4935318;29;20099;-80
2022/12/03 11:22:42;;;;;;;19.92;11.65;;;;;;;2.50;86.03;101250.47;4949548;29;20418;-81
2022/12/03 11:25:46;;;;;;;21.27;11.95;;;;;;;2.56;85.50;101244.94;4943998;29;20107;-82
2022/12/03 11:28:56;;;;;;;21.15;12.45;;;;;;;2.52;86.05;101248.63;4945598;29;20056;-81
2022/12/03 11:31:45;;;;;;;18.77;11.73;;;;;;;2.62;85.90;101240.25;4947125;29;20055;-82
2022/12/03 11:34:48;;;;;;;20.40;11.73;;;;;;;2.53;85.23;101239.97;4941174;29;20063;-81
2022/12/03 11:37:27;;;;;;;19.27;11.23;;;;;;;2.66;85.55;101241.75;4947061;29;20056;-81
2022/12/03 11:40:25;;;;;;;20.45;11.50;;;;;;;2.71;85.83;101233.72;4944088;29;20052;-80
2022/12/03 11:42:52;;;;;;;19.83;11.95;;;;;;;2.77;85.74;101227.38;4943760;29;20047;-81
2022/12/03 11:45:31;;;;;;;24.42;13.25;;;;;;;2.82;85.61;101240.84;4943867;29;20048;-80
2022/12/03 11:48:07;;;;;;;23.20;12.85;;;;;;;2.72;85.69;101224.22;4943456;29;20103;-82
2022/12/03 11:50:38;;;;;;;20.27;12.23;;;;;;;2.84;85.15;101226.06;4944642;29;20179;-82
2022/12/03 11:53:15;;;;;;;19.13;11.65;;;;;;;2.75;84.94;101214.53;4943307;29;20071;-81
2022/12/03 11:55:47;;;;;;;23.23;13.05;;;;;;;2.77;85.22;101224.78;4942385;29;20047;-81
2022/12/03 11:58:17;;;;;;;26.33;14.63;;;;;;;2.66;85.20;101209.91;4951433;28;20052;-81
2022/12/03 12:00:49;;;;;;;24.80;13.73;;;;;;;2.62;85.51;101208.44;4945973;29;20312;-82
2022/12/03 12:03:26;;;;;;;24.98;15.38;;;;;;;2.66;85.72;101212.50;4944908;29;20119;-82
2022/12/03 12:06:02;;;;;;;21.45;13.38;;;;;;;2.51;86.23;101210.81;4955766;29;20094;-82
2022/12/03 12:08:31;;;;;;;23.92;13.48;;;;;;;2.57;86.10;101210.44;4943940;29;20048;-80